Relevés horaires St-Hubert (Belgique)


Relevés horaires à St-Hubert - Mardi 31 Juill. 2018
Heure UTC1 Température [°C] Vent [km/h] Hum. [%] Pres.4 [hPa] Visi. [Km] Nébu. [octa] Préc.5 [mm] Cond.
2m. Res. Ros. Dir.2 Vit. Moy. Raf.3
23:00 19.2 19.2 11.5 NE 3.7 3.7 7.4 61 1020(0.5/3h) 45 0/8 -- --
22:00 20.5 20.5 12.2 NNO 3.7 5.6 9.3 59 1019.7(0.8/3h) 45 0/8 -- --
21:00 20.3 20.3 12.4 NNO 3.7 7.4 11.1 60 1019.7(1.0/3h) 40 1/8 -- --
20:00 21.0 21.0 12.5 NO 3.7 5.6 7.4 58 1019.1(0.8/3h) 45 0/8 -- --
19:00 22.6 22.6 13.3 ONO 5.6 7.4 11.1 56 1018.4(0.6/3h) 40 0/8 -- --
18:00 23.8 23.8 12.3 ONO 5.6 13.0 20.4 49 1017.8(0.3/3h) 45 0/8 0/12h
--
17:00 25.4 25.4 12.7 OSO 7.4 9.3 13.0 45 1017.3(0.2/3h) 40 0/8 -- --
16:00 24.8 24.8 12.2 SO 7.4 11.1 16.7 45 1017.3(0.2/3h) 45 0/8 -- --
15:00 24.6 24.6 12.0 O 9.3 13.0 20.4 45 1017.3(0.2/3h) 45 0/8 -- --
14:00 25.2 25.2 10.8 O 13.0 13.0 20.4 40 1017.1(0.0/3h) 35 0/8 -- --
13:00 26.1 26.1 11.8 OSO 11.1 13.0 18.5 41 1016.8(0.0/3h) 35 0/8 -- --
12:00 25.4 25.4 11.8 O 11.1 0.0 0.0 43 1016.9(0.4/3h) 30 0/8 0/6h
Ciel clair
11:00 23.6 23.6 14.4 O 11.1 11.1 16.7 56 1017.3(1.0/3h) 35 0/8 -- Ciel clair
10:00 22.6 22.6 14.8 NNO 0.0 0.0 0.0 61 1017.5(1.4/3h) -- -- -- --
09:00 22.5 22.5 14.9 NNO 0.0 0.0 0.0 62 1017(1.5/3h) 40 0/8 -- --
08:00 22.1 22.1 13.7 NNO 0.0 0.0 0.0 59 1016.6(0.9/3h) 30 0/8 -- --
07:00 21.4 21.4 14.6 NNO 0.0 0.0 0.0 65 1016.2(0.6/3h) 40 0/8 -- --
06:00 19.0 19.0 15.9 NNO 0.0 0.0 0.0 82 1016.1(0.3/3h) 45 0/8 0/12h
--
05:00 17.4 17.4 14.0 NNO 0.0 0.0 0.0 80 1016.7(0.5/3h) 45 0/8 -- --
04:00 16.2 16.2 12.1 NNO 0.0 0.0 0.0 77 1016.8(-0.1/3h) 45 0/8 -- --
03:00 16.3 16.3 11.5 NNO 0.0 0.0 0.0 73 1016.5(-0.3/3h) 45 0/8 -- --
02:00 16.6 16.6 11.5 NNO 0.0 0.0 0.0 72 1016.5(-0.6/3h) 45 0/8 -- --
01:00 17.7 17.7 12.8 NNO 0.0 0.0 0.0 73 1016.3(-0.6/3h) 45 0/8 -- --
00:00 18.3 18.3 13.8 NNO 0.0 0.0 0.0 75 1016.4(-0.3/3h) 45 0/8 0/6h
0/24h
--

1 Coordinated Universal Time. Actuellement il est 18:00 locale et 16:00 UTC.

2 Le vent souffle depuis la direction indiquée vers la direction oposée.

3 Les rafales max. sont disponible 40 min après l'heure du relevé.

4 Pour les stations d'altitude (plus de 600m) le géopotentiel du niveau le plus proche de la pression obligatoire est indiqué.

5 Les stations disposant d'un diffuseur peuvent indiquer "trace". Cela signifie que des précipitations ont touchés le sol mais que la quantité est inférieure à 0.1 mm.

Récapitulatif de la journée
Température [°C] Vent [km/h] Ensoleillement4 [h] Precipitations totale5 [mm] Pression [Hpa]
Min1 Max.2 Moy.3 Max. Min Max.
16.0 26.8 4.7 20.4 0 h 0 min 0 1016.1 1020.0

1 Température minimale relevée entre 18:00 UTC la veille et 18:00 UTC le jour donné.

2 Température maximale relevée entre 06:00 UTC le jour donné et 06:00 UTC le lendemain.

3 Vent moyen de la journée basé sur les relevés horaires.

4 Ensoleillement en heures relevé entre 06:00 UTC la veille et 06:00 UTC le jour donné.

5 Précipitations totales tombées entre 06:00 UTC la jour donné et 06:00 UTC le lendemain.

Graphiques horaires